Time;durP1;ratioP1;P1;durP2;ratioP2;P2;SDS_P1;SDS_P2;PMS_P1;PMS_P2;Temp;Humidity;BMP_temperature;BMP_pressure;BME280_temperature;BME280_humidity;BME280_pressure;Samples;Min_cycle;Max_cycle;Signal;HPM_P1;HPM_P2
2022/01/25 00:09:59;;;;;;;181.33;19.37;;;;;;;-0.06;100.00;95987.50;5066109;28;20228;-73
2022/01/25 00:24:16;;;;;;;103.10;16.57;;;;;;;0.03;100.00;95986.09;5064006;28;20218;-73
2022/01/25 00:28:04;;;;;;;122.27;17.00;;;;;;;-0.13;100.00;95984.72;5061688;28;20196;-72
2022/01/25 00:30:57;;;;;;;218.60;20.43;;;;;;;-0.15;100.00;95982.41;5066002;28;20602;-73
2022/01/25 00:33:51;;;;;;;179.53;17.27;;;;;;;-0.24;100.00;95983.81;5061799;28;20757;-72
2022/01/25 00:36:37;;;;;;;158.73;18.40;;;;;;;-0.24;100.00;95987.25;5080404;28;20205;-73
2022/01/25 00:39:22;;;;;;;34.03;14.50;;;;;;;-0.07;100.00;95996.72;5061323;28;20226;-72
2022/01/25 00:42:09;;;;;;;101.23;17.20;;;;;;;0.03;100.00;95985.34;5073160;28;20209;-72
2022/01/25 00:44:55;;;;;;;148.33;16.80;;;;;;;-0.03;100.00;95976.81;5069355;28;20200;-73
2022/01/25 00:47:46;;;;;;;140.27;16.07;;;;;;;-0.14;100.00;95981.25;5062929;28;20201;-73
2022/01/25 00:50:39;;;;;;;105.73;14.63;;;;;;;-0.10;100.00;95984.00;5074368;28;20706;-73
2022/01/25 00:56:35;;;;;;;106.67;14.07;;;;;;;-0.34;100.00;95971.00;5071781;28;20207;-73
2022/01/25 00:59:26;;;;;;;86.90;14.30;;;;;;;-0.25;100.00;95976.88;5084624;28;20217;-73
2022/01/25 01:02:14;;;;;;;50.30;14.13;;;;;;;-0.36;100.00;95982.13;5068490;28;20194;-73
2022/01/25 01:05:00;;;;;;;67.53;13.57;;;;;;;-0.48;100.00;95987.66;5051622;28;20204;-73
2022/01/25 01:07:46;;;;;;;123.53;18.07;;;;;;;-0.50;100.00;95981.09;5052477;28;20190;-73
2022/01/25 01:10:32;;;;;;;52.00;11.97;;;;;;;-0.28;100.00;95974.94;5058750;28;20293;-73
2022/01/25 01:14:06;;;;;;;46.17;12.90;;;;;;;-0.28;100.00;95983.75;5064949;28;20198;-73
2022/01/25 01:32:00;;;;;;;34.77;15.47;;;;;;;-0.16;100.00;95983.56;5075938;28;20199;-73
2022/01/25 01:35:27;;;;;;;39.10;13.70;;;;;;;-0.30;100.00;95972.59;5043773;28;20222;-73
2022/01/25 01:41:10;;;;;;;53.10;13.37;;;;;;;-0.46;100.00;95973.91;5069508;28;20194;-73
2022/01/25 01:43:58;;;;;;;31.50;12.57;;;;;;;-0.49;100.00;95983.41;5045072;28;20726;-73
2022/01/25 01:46:59;;;;;;;63.20;14.03;;;;;;;-0.68;100.00;95980.81;5061122;28;20196;-73
2022/01/25 01:49:45;;;;;;;90.27;15.10;;;;;;;-0.69;100.00;95973.13;5067232;28;20221;-73
2022/01/25 01:52:31;;;;;;;84.57;14.00;;;;;;;-0.68;100.00;95980.06;5077166;28;20206;-73
2022/01/25 01:55:17;;;;;;;86.30;14.30;;;;;;;-0.81;100.00;95984.81;5058694;28;20575;-73
2022/01/25 01:58:04;;;;;;;82.87;14.00;;;;;;;-0.73;100.00;95975.75;5065911;28;20194;-72
2022/01/25 02:00:50;;;;;;;165.50;14.90;;;;;;;-0.79;100.00;95974.50;5063132;28;20216;-73
2022/01/25 02:03:36;;;;;;;138.00;14.73;;;;;;;-0.96;100.00;95972.31;5064713;28;20751;-73
2022/01/25 02:06:23;;;;;;;99.90;13.73;;;;;;;-0.95;100.00;95978.44;5034802;28;20263;-73
2022/01/25 02:09:10;;;;;;;79.00;14.67;;;;;;;-0.92;100.00;95980.41;5065231;28;20226;-73
2022/01/25 02:11:56;;;;;;;116.23;12.77;;;;;;;-0.88;100.00;95975.88;5069142;28;20201;-73
2022/01/25 02:14:42;;;;;;;85.97;15.33;;;;;;;-0.95;100.00;95983.81;5053534;28;20222;-73
2022/01/25 02:23:25;;;;;;;68.17;13.77;;;;;;;-1.13;100.00;95988.06;5066068;28;20274;-73
2022/01/25 02:26:12;;;;;;;168.73;14.23;;;;;;;-1.23;100.00;95984.84;5062930;28;20224;-73
2022/01/25 02:28:58;;;;;;;143.10;21.03;;;;;;;-1.04;100.00;95976.00;5049121;28;20301;-72
2022/01/25 02:31:44;;;;;;;68.07;12.77;;;;;;;-0.95;100.00;95983.81;5057019;28;20193;-73
2022/01/25 02:34:30;;;;;;;99.90;16.20;;;;;;;-1.06;100.00;95980.94;5062466;28;20244;-73
2022/01/25 02:37:16;;;;;;;55.40;13.17;;;;;;;-1.12;100.00;95982.34;5074992;28;20193;-73
2022/01/25 02:40:03;;;;;;;146.63;20.53;;;;;;;-1.15;100.00;95974.28;5072323;28;20295;-73
2022/01/25 02:42:50;;;;;;;120.67;14.40;;;;;;;-1.10;100.00;95979.34;5065669;28;20197;-72
2022/01/25 02:45:37;;;;;;;66.07;14.50;;;;;;;-0.97;100.00;95978.03;5065271;28;20202;-73
2022/01/25 02:48:30;;;;;;;35.37;11.20;;;;;;;-1.00;100.00;95970.69;5064582;28;20214;-72
2022/01/25 02:51:16;;;;;;;25.70;13.13;;;;;;;-0.90;100.00;95959.38;5085620;28;20201;-72
2022/01/25 02:54:04;;;;;;;30.27;12.43;;;;;;;-0.86;100.00;95960.19;5060607;28;20833;-73
2022/01/25 02:56:50;;;;;;;18.67;11.67;;;;;;;-0.86;100.00;95952.94;5061378;28;20204;-73
2022/01/25 02:59:36;;;;;;;16.67;10.37;;;;;;;-0.77;100.00;95948.13;5057621;28;20221;-73
2022/01/25 03:02:22;;;;;;;22.30;11.67;;;;;;;-0.90;100.00;95956.69;5076938;28;20193;-73
2022/01/25 03:05:08;;;;;;;18.23;10.93;;;;;;;-0.87;100.00;95947.94;5052199;28;20194;-73
2022/01/25 03:07:55;;;;;;;19.60;11.83;;;;;;;-0.66;100.00;95951.72;5056755;28;20197;-73
2022/01/25 03:10:46;;;;;;;16.70;10.27;;;;;;;-0.89;100.00;95959.03;5077969;28;20224;-73
2022/01/25 03:13:43;;;;;;;30.97;10.27;;;;;;;-0.83;100.00;95959.50;5031425;28;20733;-72
2022/01/25 03:16:42;;;;;;;40.83;10.17;;;;;;;-0.93;100.00;95952.06;5079048;28;20294;-73
2022/01/25 03:22:55;;;;;;;32.03;10.77;;;;;;;-1.04;100.00;95967.16;5060554;28;20197;-72
2022/01/25 03:25:38;;;;;;;63.63;11.27;;;;;;;-1.12;100.00;95958.22;5056215;28;20209;-72
2022/01/25 03:28:24;;;;;;;109.03;13.17;;;;;;;-1.15;100.00;95953.56;5063735;28;20198;-73
2022/01/25 03:31:10;;;;;;;30.77;10.77;;;;;;;-1.05;100.00;95958.34;5073235;28;20728;-72
2022/01/25 03:33:57;;;;;;;64.30;14.00;;;;;;;-0.95;100.00;95971.16;5052180;28;20221;-72
2022/01/25 03:36:43;;;;;;;43.93;12.23;;;;;;;-0.93;100.00;95952.06;5057895;28;20213;-73
2022/01/25 03:39:29;;;;;;;49.37;11.37;;;;;;;-1.04;100.00;95962.59;5090226;28;20545;-73
2022/01/25 03:42:16;;;;;;;40.73;11.00;;;;;;;-1.14;100.00;95973.91;5060887;28;20663;-72
2022/01/25 03:45:04;;;;;;;19.30;10.47;;;;;;;-1.18;100.00;95954.31;5061403;28;20202;-72
2022/01/25 03:49:48;;;;;;;31.90;10.67;;;;;;;-1.19;100.00;95963.47;5083201;28;20271;-72
2022/01/25 03:51:04;;;;;;;56.90;10.17;;;;;;;-1.32;100.00;95970.09;5084760;28;20295;-72
2022/01/25 03:53:51;;;;;;;34.07;11.17;;;;;;;-1.36;100.00;95953.97;5067389;28;20205;-72
2022/01/25 03:56:38;;;;;;;17.23;9.70;;;;;;;-1.32;100.00;95972.78;5051294;28;20201;-72
2022/01/25 03:59:25;;;;;;;24.30;9.93;;;;;;;-1.35;100.00;95950.19;5079668;28;20581;-72
2022/01/25 04:02:12;;;;;;;24.33;11.00;;;;;;;-1.20;100.00;95964.59;5077252;28;20190;-72
2022/01/25 04:05:00;;;;;;;19.60;11.40;;;;;;;-1.19;100.00;95955.44;5052149;28;20192;-72
2022/01/25 04:07:50;;;;;;;21.30;11.23;;;;;;;-1.22;100.00;95959.59;5049614;28;20269;-72
2022/01/25 04:10:36;;;;;;;23.30;12.47;;;;;;;-1.16;100.00;95954.72;5065334;28;20260;-72
2022/01/25 04:13:23;;;;;;;20.93;11.67;;;;;;;-1.43;100.00;95956.53;5063655;28;20537;-72
2022/01/25 04:16:18;;;;;;;46.60;11.90;;;;;;;-1.51;100.00;95959.44;5071178;28;20568;-72
2022/01/25 04:19:09;;;;;;;48.50;12.10;;;;;;;-1.45;100.00;95955.34;5063357;28;20225;-72
2022/01/25 04:25:07;;;;;;;31.00;12.23;;;;;;;-1.27;100.00;95953.75;5062772;28;20564;-72
2022/01/25 04:27:53;;;;;;;56.40;13.83;;;;;;;-1.49;100.00;95965.97;5068208;28;20784;-72
2022/01/25 04:30:42;;;;;;;70.73;14.17;;;;;;;-1.45;100.00;95961.47;5067257;28;20226;-71
2022/01/25 04:33:39;;;;;;;45.17;13.27;;;;;;;-1.34;100.00;95959.00;5066476;28;20206;-72
2022/01/25 04:36:40;;;;;;;28.03;13.17;;;;;;;-1.23;100.00;95943.88;5063275;28;20619;-72
2022/01/25 04:55:01;;;;;;;73.00;16.30;;;;;;;-1.01;100.00;95935.06;5070068;28;20601;-72
2022/01/25 04:57:55;;;;;;;58.63;15.93;;;;;;;-1.12;100.00;95931.41;5058531;28;20280;-72
2022/01/25 05:00:41;;;;;;;43.47;16.97;;;;;;;-1.00;100.00;95941.22;5061514;28;20718;-72
2022/01/25 05:03:38;;;;;;;33.13;15.90;;;;;;;-0.98;100.00;95939.72;5070460;28;20209;-72
2022/01/25 05:06:25;;;;;;;37.27;16.00;;;;;;;-0.90;100.00;95941.38;5050606;28;20182;-72
2022/01/25 05:09:13;;;;;;;74.87;21.87;;;;;;;-0.83;100.00;95935.38;5055442;28;20213;-72
2022/01/25 05:11:59;;;;;;;53.63;19.23;;;;;;;-0.78;100.00;95925.09;5070119;28;20186;-72
2022/01/25 05:15:01;;;;;;;41.40;17.23;;;;;;;-1.15;100.00;95924.09;5069155;28;20224;-72
2022/01/25 05:18:01;;;;;;;56.57;14.53;;;;;;;-1.07;100.00;95941.88;5073693;28;20249;-72
2022/01/25 05:23:54;;;;;;;31.87;16.23;;;;;;;-1.07;100.00;95939.19;5070676;28;20197;-72
2022/01/25 05:26:41;;;;;;;29.73;15.37;;;;;;;-1.20;100.00;95934.38;5051029;28;20193;-72
2022/01/25 05:29:27;;;;;;;32.40;16.53;;;;;;;-1.00;100.00;95936.59;5082438;28;20210;-72
2022/01/25 05:32:13;;;;;;;32.80;17.37;;;;;;;-1.03;100.00;95933.88;5091215;28;20568;-72
2022/01/25 05:35:00;;;;;;;38.20;16.00;;;;;;;-1.19;100.00;95936.69;5062363;28;20202;-72
2022/01/25 05:37:46;;;;;;;31.63;16.57;;;;;;;-1.14;100.00;95932.91;5079784;28;20194;-72
2022/01/25 05:40:47;;;;;;;42.13;15.90;;;;;;;-1.10;100.00;95925.72;5056314;28;20300;-72
2022/01/25 05:44:12;;;;;;;40.70;15.83;;;;;;;-0.96;100.00;95952.75;5078547;28;20204;-72
2022/01/25 05:49:45;;;;;;;47.33;18.80;;;;;;;-1.01;100.00;95932.38;5073739;28;20217;-73
2022/01/25 05:52:31;;;;;;;62.73;19.60;;;;;;;-1.18;100.00;95929.41;5063116;28;20543;-72
2022/01/25 05:55:17;;;;;;;45.13;18.67;;;;;;;-1.17;100.00;95931.72;5053852;28;20217;-72
2022/01/25 05:58:03;;;;;;;50.77;17.27;;;;;;;-1.35;100.00;95936.78;5075549;28;20251;-72
2022/01/25 06:00:49;;;;;;;74.63;19.33;;;;;;;-1.23;100.00;95941.19;5058204;28;20899;-72
2022/01/25 06:03:35;;;;;;;57.03;17.23;;;;;;;-1.46;100.00;95935.03;5070549;28;20565;-72
2022/01/25 06:06:22;;;;;;;45.50;17.47;;;;;;;-1.38;100.00;95942.06;5043458;28;20281;-72
2022/01/25 06:09:07;;;;;;;59.47;17.43;;;;;;;-1.24;100.00;95945.00;5059551;28;20225;-72
2022/01/25 06:11:54;;;;;;;39.60;16.07;;;;;;;-1.28;100.00;95939.59;5053067;28;20203;-73
2022/01/25 06:14:43;;;;;;;30.07;16.80;;;;;;;-1.23;100.00;95936.63;5065394;28;20709;-72
2022/01/25 06:17:29;;;;;;;41.27;17.27;;;;;;;-1.11;100.00;95934.88;5050415;28;20683;-72
2022/01/25 06:20:16;;;;;;;29.70;17.20;;;;;;;-1.18;100.00;95935.53;5084723;28;20320;-73
2022/01/25 06:23:02;;;;;;;32.20;14.70;;;;;;;-1.20;100.00;95937.03;5055034;28;20198;-73
2022/01/25 06:25:48;;;;;;;40.47;16.73;;;;;;;-1.18;100.00;95924.81;5055617;28;20200;-72
2022/01/25 06:28:34;;;;;;;28.90;16.43;;;;;;;-1.18;100.00;95924.81;5068129;28;20200;-72
2022/01/25 06:31:20;;;;;;;32.23;16.73;;;;;;;-1.19;100.00;95927.84;5052488;28;20205;-72
2022/01/25 06:34:06;;;;;;;34.93;15.37;;;;;;;-1.38;100.00;95937.50;5069420;28;20214;-72
2022/01/25 06:36:52;;;;;;;37.63;17.37;;;;;;;-1.44;100.00;95944.25;5065297;28;20350;-72
2022/01/25 06:39:39;;;;;;;30.03;18.23;;;;;;;-1.32;100.00;95954.81;5077515;28;20741;-73
2022/01/25 06:42:31;;;;;;;35.07;16.37;;;;;;;-1.50;100.00;95948.38;5087943;28;20218;-73
2022/01/25 06:45:20;;;;;;;31.30;16.13;;;;;;;-1.50;100.00;95936.88;5050474;28;20831;-73
2022/01/25 06:48:06;;;;;;;21.13;15.00;;;;;;;-1.44;100.00;95943.47;5061038;28;20229;-72
2022/01/25 06:50:52;;;;;;;24.10;15.10;;;;;;;-1.34;100.00;95942.91;5054147;28;20225;-73
2022/01/25 06:53:38;;;;;;;34.17;17.60;;;;;;;-1.48;100.00;95939.97;5050219;28;20683;-72
2022/01/25 06:56:24;;;;;;;27.10;16.20;;;;;;;-1.60;100.00;95954.31;5069394;28;20196;-73
2022/01/25 06:59:10;;;;;;;24.53;14.33;;;;;;;-1.42;100.00;95950.03;5073853;28;20213;-73
2022/01/25 07:01:56;;;;;;;26.07;14.47;;;;;;;-1.21;100.00;95949.66;5058573;28;20225;-73
2022/01/25 07:04:41;;;;;;;24.57;14.97;;;;;;;-1.49;100.00;95947.22;5065328;28;20195;-73
2022/01/25 07:07:29;;;;;;;28.07;15.43;;;;;;;-1.18;100.00;95953.50;5060356;28;20288;-73
2022/01/25 07:10:15;;;;;;;23.50;14.43;;;;;;;-1.35;100.00;95960.91;5085606;28;20299;-73
2022/01/25 07:13:01;;;;;;;21.97;14.57;;;;;;;-1.52;100.00;95966.69;5077868;28;20193;-73
2022/01/25 07:15:47;;;;;;;26.43;14.87;;;;;;;-1.52;100.00;95965.91;5074970;28;20300;-73
2022/01/25 07:18:33;;;;;;;26.07;14.23;;;;;;;-1.63;100.00;95967.63;5073140;28;20609;-73
2022/01/25 07:21:19;;;;;;;26.43;15.53;;;;;;;-1.48;100.00;95969.44;5067014;28;20193;-73
2022/01/25 07:24:06;;;;;;;25.43;15.83;;;;;;;-1.44;100.00;95968.38;5055341;28;20194;-73
2022/01/25 07:26:52;;;;;;;26.17;15.33;;;;;;;-1.31;100.00;95977.03;5058395;28;20200;-73
2022/01/25 07:29:38;;;;;;;29.40;16.60;;;;;;;-1.25;100.00;95972.94;5067398;28;20591;-73
2022/01/25 07:32:24;;;;;;;23.03;14.43;;;;;;;-1.33;100.00;95976.59;5087712;28;20252;-73
2022/01/25 07:35:10;;;;;;;21.53;14.70;;;;;;;-1.33;100.00;95969.34;5071158;28;20209;-72
2022/01/25 07:37:56;;;;;;;22.20;14.63;;;;;;;-1.33;100.00;95966.69;5082910;28;20315;-73
2022/01/25 07:40:42;;;;;;;25.00;15.23;;;;;;;-1.24;100.00;95979.84;5093429;28;20208;-73
2022/01/25 07:43:28;;;;;;;27.00;13.63;;;;;;;-1.31;100.00;95967.06;5085067;28;20234;-73
2022/01/25 07:46:16;;;;;;;19.27;12.23;;;;;;;-1.38;100.00;95966.19;5085020;28;20298;-73
2022/01/25 07:49:03;;;;;;;21.37;13.53;;;;;;;-1.46;100.00;95964.50;5090777;28;20209;-73
2022/01/25 07:51:48;;;;;;;24.00;16.33;;;;;;;-1.67;100.00;95972.13;5061170;28;20204;-73
2022/01/25 07:54:34;;;;;;;21.17;12.73;;;;;;;-1.61;100.00;95968.00;5071005;28;20857;-73
2022/01/25 07:57:20;;;;;;;20.40;13.73;;;;;;;-1.31;100.00;95966.31;5068932;28;20212;-73
2022/01/25 08:00:07;;;;;;;20.60;13.47;;;;;;;-1.22;100.00;95972.22;5070545;28;20205;-72
2022/01/25 08:02:58;;;;;;;15.30;10.47;;;;;;;-1.15;100.00;95975.03;5074394;28;20190;-72
2022/01/25 08:05:45;;;;;;;14.63;10.27;;;;;;;-1.22;100.00;95980.25;5044391;28;20217;-73
2022/01/25 08:08:33;;;;;;;16.20;10.17;;;;;;;-1.17;100.00;95979.19;5065734;28;20198;-72
2022/01/25 08:11:19;;;;;;;15.93;10.97;;;;;;;-1.06;100.00;95982.84;5090954;28;20219;-72
2022/01/25 08:14:13;;;;;;;16.77;11.03;;;;;;;-0.97;100.00;95968.09;5071959;28;20274;-72
2022/01/25 08:16:59;;;;;;;15.70;10.90;;;;;;;-0.90;100.00;95978.16;5066835;28;20214;-72
2022/01/25 08:19:45;;;;;;;15.90;12.07;;;;;;;-1.08;100.00;95972.47;5060054;28;20323;-72
2022/01/25 08:22:33;;;;;;;18.07;12.33;;;;;;;-1.08;100.00;95977.03;5069743;28;20193;-72
2022/01/25 08:25:19;;;;;;;18.50;12.90;;;;;;;-0.99;100.00;95982.97;5064536;28;20300;-72
2022/01/25 08:28:05;;;;;;;17.40;11.60;;;;;;;-1.08;100.00;95967.09;5053140;28;20276;-72
2022/01/25 08:30:51;;;;;;;18.37;12.63;;;;;;;-0.71;100.00;95975.41;5086999;28;20399;-72
2022/01/25 08:33:39;;;;;;;16.33;11.20;;;;;;;-0.73;100.00;95970.38;5056632;28;20277;-73
2022/01/25 08:36:25;;;;;;;18.90;13.37;;;;;;;-0.65;100.00;95955.19;5071397;28;20208;-73
2022/01/25 08:39:14;;;;;;;19.30;12.37;;;;;;;-0.60;100.00;95970.97;5081070;28;20217;-72
2022/01/25 08:42:00;;;;;;;14.17;9.40;;;;;;;-0.36;100.00;95978.66;5072392;28;20654;-73
2022/01/25 08:44:46;;;;;;;16.87;9.83;;;;;;;-0.41;100.00;95984.31;5071522;28;20280;-73
2022/01/25 08:47:32;;;;;;;16.67;9.23;;;;;;;-0.23;100.00;95982.66;5069966;28;20247;-72
2022/01/25 08:50:18;;;;;;;14.13;9.43;;;;;;;-0.20;100.00;96006.09;5059101;28;20221;-73
2022/01/25 08:53:07;;;;;;;13.03;9.20;;;;;;;-0.13;100.00;95985.50;5076671;28;20194;-72
2022/01/25 08:55:53;;;;;;;13.07;9.47;;;;;;;-0.03;100.00;95979.50;5049035;28;20639;-72
2022/01/25 08:58:40;;;;;;;12.73;9.73;;;;;;;-0.07;100.00;95985.97;5072756;28;20613;-72
2022/01/25 09:01:27;;;;;;;12.50;9.27;;;;;;;0.04;100.00;95976.16;5072048;28;20520;-71
2022/01/25 09:04:13;;;;;;;22.30;9.50;;;;;;;-0.15;100.00;95978.94;5071512;28;20190;-72
2022/01/25 09:06:59;;;;;;;17.33;9.50;;;;;;;-0.22;100.00;95979.63;5070794;28;20198;-73
2022/01/25 09:09:46;;;;;;;13.50;9.70;;;;;;;0.19;100.00;95977.13;5073184;28;20709;-72
2022/01/25 09:12:32;;;;;;;12.60;8.77;;;;;;;0.58;100.00;95976.44;5072166;28;20662;-73
2022/01/25 09:15:18;;;;;;;11.07;8.37;;;;;;;0.56;100.00;95981.41;5071027;28;20696;-72
2022/01/25 09:18:04;;;;;;;13.90;9.60;;;;;;;0.49;100.00;95988.63;5090565;28;20204;-72
2022/01/25 09:20:50;;;;;;;13.17;9.67;;;;;;;0.23;100.00;95985.97;5082170;28;20248;-72
2022/01/25 09:23:36;;;;;;;13.90;9.70;;;;;;;0.37;100.00;95981.59;5070419;28;20255;-72
2022/01/25 09:26:23;;;;;;;11.23;8.80;;;;;;;0.51;100.00;95981.72;5068424;28;20200;-72
2022/01/25 09:29:09;;;;;;;11.63;9.27;;;;;;;0.42;100.00;95996.59;5072722;28;20281;-73
2022/01/25 09:31:55;;;;;;;12.17;9.03;;;;;;;0.69;100.00;95984.63;5081185;28;20696;-73
2022/01/25 09:34:41;;;;;;;11.90;8.57;;;;;;;0.65;100.00;95984.59;5079682;28;20248;-73
2022/01/25 09:37:27;;;;;;;12.13;9.10;;;;;;;0.89;100.00;95992.16;5058343;28;20251;-73
2022/01/25 09:40:14;;;;;;;16.20;10.43;;;;;;;0.96;100.00;95984.19;5079510;28;20201;-73
2022/01/25 09:43:00;;;;;;;13.23;9.07;;;;;;;1.03;100.00;95991.53;5072155;28;20194;-72
2022/01/25 09:45:47;;;;;;;11.83;9.40;;;;;;;0.93;100.00;95990.28;5070911;28;20197;-72
2022/01/25 09:48:33;;;;;;;12.53;8.87;;;;;;;0.92;100.00;95986.03;5072517;28;20186;-73
2022/01/25 09:51:20;;;;;;;11.60;8.97;;;;;;;0.94;100.00;95972.22;5077762;28;20202;-73
2022/01/25 09:54:06;;;;;;;12.10;9.33;;;;;;;0.78;100.00;95987.81;5087287;28;20189;-72
2022/01/25 09:56:52;;;;;;;12.50;9.20;;;;;;;1.19;100.00;96000.13;5044982;28;20209;-73
2022/01/25 09:59:38;;;;;;;14.43;10.20;;;;;;;1.09;100.00;95988.13;5076361;28;20216;-73
2022/01/25 10:03:06;;;;;;;12.40;9.40;;;;;;;1.05;100.00;95992.69;5089483;28;20185;-72
2022/01/25 10:05:55;;;;;;;14.87;9.63;;;;;;;1.47;100.00;95989.66;5054469;28;20268;-72
2022/01/25 10:08:43;;;;;;;12.80;9.50;;;;;;;1.52;100.00;95985.81;5043959;28;20181;-73
2022/01/25 10:11:29;;;;;;;12.10;9.07;;;;;;;1.56;100.00;95986.63;5090558;28;20620;-72
2022/01/25 10:14:15;;;;;;;11.63;9.10;;;;;;;1.05;100.00;95992.69;5086098;28;20209;-73
2022/01/25 10:17:01;;;;;;;13.20;9.17;;;;;;;1.06;100.00;95996.16;5073737;28;20193;-73
2022/01/25 10:19:47;;;;;;;13.87;9.43;;;;;;;0.80;100.00;95974.75;5048059;28;20228;-73
2022/01/25 10:22:46;;;;;;;11.00;8.23;;;;;;;0.88;100.00;95974.47;5054722;28;20185;-72
2022/01/25 10:25:43;;;;;;;13.00;9.57;;;;;;;1.04;100.00;95968.88;5074126;28;20209;-72
2022/01/25 10:28:31;;;;;;;12.30;9.67;;;;;;;0.85;100.00;95969.84;5058048;28;20190;-72
2022/01/25 10:31:17;;;;;;;11.57;8.73;;;;;;;0.62;100.00;95966.53;5063097;28;20186;-72
2022/01/25 10:34:05;;;;;;;13.83;8.33;;;;;;;0.76;100.00;95987.41;5068485;28;20658;-72
2022/01/25 10:36:53;;;;;;;17.87;9.97;;;;;;;0.85;100.00;95977.91;5069295;28;20197;-72
2022/01/25 10:39:42;;;;;;;14.67;9.43;;;;;;;0.90;100.00;95971.44;5077355;28;20218;-72
2022/01/25 10:42:34;;;;;;;21.43;9.67;;;;;;;0.93;100.00;95971.44;5070823;28;20259;-71
2022/01/25 10:45:23;;;;;;;19.67;9.13;;;;;;;0.91;100.00;95957.63;5069376;28;20194;-73
2022/01/25 10:48:09;;;;;;;14.03;8.53;;;;;;;0.95;100.00;95950.34;5075061;28;20259;-72
2022/01/25 10:51:04;;;;;;;12.83;9.37;;;;;;;0.99;100.00;95985.34;5076414;28;20245;-72
2022/01/25 10:54:22;;;;;;;14.37;9.00;;;;;;;1.06;100.00;95956.59;5065722;28;20262;-72
2022/01/25 10:57:20;;;;;;;10.87;7.97;;;;;;;1.33;100.00;95942.97;5058480;28;20276;-72
2022/01/25 11:00:11;;;;;;;10.53;8.57;;;;;;;1.19;100.00;95941.72;5073716;28;20221;-73
2022/01/25 11:02:57;;;;;;;10.63;7.97;;;;;;;1.11;100.00;95937.44;5053721;28;20265;-72
2022/01/25 11:05:45;;;;;;;9.87;7.97;;;;;;;1.27;100.00;95927.19;5055241;28;20190;-73
2022/01/25 11:08:30;;;;;;;10.43;7.83;;;;;;;1.05;100.00;95946.22;5080093;28;20693;-73
2022/01/25 11:11:25;;;;;;;10.53;7.97;;;;;;;1.38;100.00;95935.34;5071943;28;20655;-73
2022/01/25 11:17:18;;;;;;;10.93;8.60;;;;;;;1.45;100.00;95918.47;5071566;28;20284;-73
2022/01/25 11:20:04;;;;;;;11.83;8.47;;;;;;;1.67;100.00;95923.66;5076318;28;20542;-72
2022/01/25 11:22:51;;;;;;;10.93;8.03;;;;;;;1.79;100.00;95917.94;5062375;28;20542;-73
2022/01/25 11:25:38;;;;;;;11.20;8.00;;;;;;;2.03;100.00;95921.94;5068784;28;20189;-73
2022/01/25 11:28:25;;;;;;;10.87;8.63;;;;;;;2.18;100.00;95915.47;5050455;28;20194;-73
2022/01/25 11:31:22;;;;;;;9.80;8.37;;;;;;;2.04;100.00;95915.38;5075814;28;20225;-73
2022/01/25 11:34:12;;;;;;;10.53;8.90;;;;;;;2.29;100.00;95900.88;5083952;28;20273;-73
2022/01/25 11:37:04;;;;;;;10.97;8.30;;;;;;;2.37;100.00;95893.59;5069834;28;20587;-73
2022/01/25 11:39:50;;;;;;;9.17;7.07;;;;;;;2.62;100.00;95899.81;5061828;28;20309;-73
2022/01/25 11:42:47;;;;;;;10.67;8.13;;;;;;;2.83;100.00;95901.81;5050543;28;20683;-73
2022/01/25 11:45:35;;;;;;;8.47;7.20;;;;;;;2.92;100.00;95902.22;5066141;28;20263;-73
2022/01/25 11:48:33;;;;;;;9.13;7.80;;;;;;;3.18;100.00;95899.13;5079621;28;20201;-72
2022/01/25 11:51:20;;;;;;;8.90;6.90;;;;;;;5.22;100.00;95901.94;5076238;28;20194;-73
2022/01/25 11:54:08;;;;;;;7.70;6.70;;;;;;;6.78;100.00;95889.13;5090855;28;20746;-73
2022/01/25 11:57:08;;;;;;;9.07;7.27;;;;;;;5.38;98.88;95880.50;5066525;28;20201;-72
2022/01/25 12:00:00;;;;;;;8.77;6.73;;;;;;;5.00;100.00;95886.22;5052426;28;20687;-74
2022/01/25 12:02:51;;;;;;;8.23;7.07;;;;;;;4.91;100.00;95882.03;5060982;28;20220;-74
2022/01/25 12:06:03;;;;;;;7.87;6.80;;;;;;;4.78;100.00;95872.84;5068158;28;20194;-74
2022/01/25 12:11:59;;;;;;;7.87;6.73;;;;;;;3.47;100.00;95877.16;5076140;28;20212;-74
2022/01/25 12:14:48;;;;;;;7.50;5.90;;;;;;;3.48;100.00;95865.19;5065635;28;20225;-73
2022/01/25 12:17:34;;;;;;;8.53;5.90;;;;;;;3.31;100.00;95859.81;5067983;28;20235;-73
2022/01/25 12:20:23;;;;;;;7.23;6.40;;;;;;;3.24;100.00;95865.22;5066301;28;20686;-73
2022/01/25 12:23:18;;;;;;;7.77;6.40;;;;;;;3.27;100.00;95853.66;5081023;28;20201;-73
2022/01/25 12:26:08;;;;;;;8.70;7.03;;;;;;;3.29;100.00;95852.09;5059079;28;20273;-72
2022/01/25 12:29:32;;;;;;;7.33;6.43;;;;;;;3.08;100.00;95846.72;5051209;28;20668;-73
2022/01/25 12:32:23;;;;;;;8.37;6.33;;;;;;;3.24;100.00;95838.97;5079858;28;20263;-73
2022/01/25 12:35:18;;;;;;;9.60;7.00;;;;;;;3.23;100.00;95842.84;5059225;28;20235;-73
2022/01/25 12:38:24;;;;;;;8.30;7.20;;;;;;;3.32;100.00;95839.75;5062971;28;20202;-73
2022/01/25 12:41:15;;;;;;;8.40;6.60;;;;;;;3.30;100.00;95842.06;5077745;28;20204;-73
2022/01/25 12:44:05;;;;;;;7.20;6.37;;;;;;;3.30;100.00;95842.06;5038358;28;20198;-73
2022/01/25 12:46:51;;;;;;;7.97;6.80;;;;;;;3.67;100.00;95842.38;5066359;28;20186;-73
2022/01/25 12:49:43;;;;;;;8.20;6.70;;;;;;;3.98;100.00;95833.44;5045686;28;20221;-73
2022/01/25 12:52:29;;;;;;;7.73;6.43;;;;;;;4.03;100.00;95830.31;5070653;28;20198;-73
2022/01/25 12:55:16;;;;;;;10.63;7.13;;;;;;;4.19;100.00;95836.03;5071220;28;20217;-73
2022/01/25 12:58:03;;;;;;;9.40;6.27;;;;;;;4.34;100.00;95831.34;5071765;28;20243;-73
2022/01/25 13:00:52;;;;;;;9.70;6.20;;;;;;;4.44;100.00;95831.31;5072325;28;20644;-72
2022/01/25 13:03:50;;;;;;;8.37;6.43;;;;;;;4.40;100.00;95830.53;5061490;28;20221;-73
2022/01/25 13:06:39;;;;;;;6.97;5.97;;;;;;;4.53;100.00;95830.88;5075971;28;20252;-73
2022/01/25 13:09:33;;;;;;;9.57;5.77;;;;;;;4.63;100.00;95825.38;5087289;28;20229;-73
2022/01/25 13:12:27;;;;;;;7.07;5.50;;;;;;;4.49;100.00;95825.47;5062574;28;20190;-73
2022/01/25 13:15:56;;;;;;;5.90;5.07;;;;;;;4.49;100.00;95824.69;5057799;28;20223;-73
2022/01/25 13:18:42;;;;;;;5.93;4.53;;;;;;;4.49;100.00;95822.78;5071004;28;20196;-74
2022/01/25 13:21:40;;;;;;;7.53;4.53;;;;;;;4.43;100.00;95824.34;5082917;28;20193;-74
2022/01/25 13:24:30;;;;;;;5.70;4.87;;;;;;;4.52;100.00;95821.19;5053474;28;20189;-74
2022/01/25 13:27:17;;;;;;;6.23;5.50;;;;;;;4.41;100.00;95818.53;5051892;28;20273;-73
2022/01/25 13:33:13;;;;;;;8.23;5.97;;;;;;;4.65;100.00;95801.41;5069891;28;20289;-74
2022/01/25 13:36:00;;;;;;;7.03;5.67;;;;;;;4.61;100.00;95803.38;5037053;28;20222;-73
2022/01/25 13:38:48;;;;;;;6.93;5.40;;;;;;;4.61;100.00;95797.19;5074453;28;20227;-74
2022/01/25 13:41:41;;;;;;;7.00;5.63;;;;;;;4.62;100.00;95806.81;5075200;28;20189;-74
2022/01/25 13:47:32;;;;;;;7.00;5.03;;;;;;;4.60;100.00;95785.59;5090185;28;20646;-74
2022/01/25 13:50:21;;;;;;;5.90;4.77;;;;;;;4.85;100.00;95793.53;5084550;28;20225;-74
2022/01/25 13:53:08;;;;;;;10.27;5.17;;;;;;;4.86;100.00;95784.25;5083971;28;20676;-74
2022/01/25 13:55:59;;;;;;;5.80;5.03;;;;;;;4.98;99.26;95789.19;5050108;28;20210;-74
2022/01/25 13:58:48;;;;;;;7.13;4.57;;;;;;;5.02;98.24;95789.94;5067354;28;20934;-73
2022/01/25 14:01:37;;;;;;;5.70;4.63;;;;;;;5.07;97.90;95786.00;5069151;28;20647;-73
2022/01/25 14:04:27;;;;;;;6.43;4.87;;;;;;;5.19;95.40;95788.22;5060365;28;20197;-73
2022/01/25 14:07:15;;;;;;;6.97;4.87;;;;;;;5.21;94.05;95792.06;5071398;28;20284;-73
2022/01/25 14:10:20;;;;;;;6.23;3.73;;;;;;;5.26;94.48;95801.72;5054017;28;20223;-73
2022/01/25 14:22:46;;;;;;;6.77;4.73;;;;;;;5.16;83.54;95802.56;5081724;28;20189;-73
2022/01/25 14:25:41;;;;;;;4.87;3.80;;;;;;;5.13;82.69;95798.72;5063112;28;20250;-73
2022/01/25 14:28:27;;;;;;;7.93;5.20;;;;;;;5.13;85.62;95806.06;5066005;28;20292;-73
2022/01/25 14:31:20;;;;;;;6.03;4.33;;;;;;;5.10;86.96;95809.56;5071827;28;20193;-73
2022/01/25 14:34:06;;;;;;;5.67;5.00;;;;;;;4.90;87.14;95814.75;5071154;28;20194;-73
2022/01/25 14:36:52;;;;;;;6.73;5.50;;;;;;;4.80;86.17;95823.72;5058216;28;20570;-73